Time;durP1;ratioP1;P1;durP2;ratioP2;P2;SDS_P1;SDS_P2;PMS_P1;PMS_P2;Temp;Humidity;BMP_temperature;BMP_pressure;BME280_temperature;BME280_humidity;BME280_pressure;Samples;Min_cycle;Max_cycle;Signal;HPM_P1;HPM_P2
2021/10/27 00:01:19;;;;;;;26.00;18.60;;;12.40;90.10;;;;;;5058688;28;20179;-90
2021/10/27 00:03:45;;;;;;;30.67;19.50;;;12.40;90.30;;;;;;5076467;28;20168;-90
2021/10/27 00:06:10;;;;;;;24.90;16.70;;;12.50;90.40;;;;;;5058607;28;20552;-90
2021/10/27 00:08:36;;;;;;;24.97;16.50;;;12.30;90.80;;;;;;5076838;28;20191;-89
2021/10/27 00:11:02;;;;;;;32.43;19.70;;;12.30;91.30;;;;;;5058528;28;20179;-90
2021/10/27 00:13:28;;;;;;;30.93;20.57;;;12.30;91.40;;;;;;5058326;28;20183;-90
2021/10/27 00:15:53;;;;;;;31.07;20.80;;;12.30;91.60;;;;;;5076336;28;20218;-90
2021/10/27 00:18:19;;;;;;;28.87;17.50;;;12.30;91.60;;;;;;5058513;28;20192;-89
2021/10/27 00:20:45;;;;;;;37.30;20.93;;;12.30;91.70;;;;;;5058380;28;20241;-91
2021/10/27 00:23:10;;;;;;;24.07;18.67;;;12.40;91.40;;;;;;5058170;28;20171;-90
2021/10/27 00:25:36;;;;;;;27.37;18.53;;;12.30;91.40;;;;;;5058587;28;20248;-91
2021/10/27 00:28:02;;;;;;;30.67;19.37;;;12.40;91.30;;;;;;5058130;28;20218;-90
2021/10/27 00:30:28;;;;;;;26.17;19.47;;;12.40;91.10;;;;;;5058154;28;20175;-90
2021/10/27 00:32:54;;;;;;;30.23;19.33;;;12.40;91.10;;;;;;5058231;28;20266;-90
2021/10/27 00:35:20;;;;;;;23.17;14.53;;;12.50;90.70;;;;;;5057945;28;20687;-90
2021/10/27 00:37:45;;;;;;;26.23;18.83;;;12.40;90.90;;;;;;5075879;28;20211;-89
2021/10/27 00:40:12;;;;;;;27.37;19.00;;;12.50;90.70;;;;;;5075889;28;20219;-91
2021/10/27 00:42:38;;;;;;;34.60;18.93;;;12.50;90.60;;;;;;5075879;28;20167;-90
2021/10/27 00:45:04;;;;;;;24.50;16.77;;;12.50;90.60;;;;;;5057472;28;20186;-90
2021/10/27 00:47:30;;;;;;;26.73;17.90;;;12.50;90.60;;;;;;5075698;28;20195;-90
2021/10/27 00:49:56;;;;;;;35.93;22.67;;;12.50;90.60;;;;;;5057766;28;20295;-90
2021/10/27 00:52:22;;;;;;;20.27;15.13;;;12.50;90.50;;;;;;5075770;28;20175;-90
2021/10/27 00:54:50;;;;;;;28.63;18.30;;;12.50;90.50;;;;;;5057568;28;20198;-90
2021/10/27 00:57:21;;;;;;;25.43;18.70;;;12.50;90.40;;;;;;5057705;28;20696;-90
2021/10/27 00:59:47;;;;;;;26.33;17.30;;;12.50;90.60;;;;;;5058028;28;20202;-89
2021/10/27 01:02:14;;;;;;;31.63;19.57;;;12.60;90.50;;;;;;5057706;28;20258;-91
2021/10/27 01:04:41;;;;;;;32.73;18.83;;;12.50;90.60;;;;;;5057624;28;20175;-90
2021/10/27 01:07:07;;;;;;;38.30;18.83;;;12.50;90.40;;;;;;5057559;28;20210;-91
2021/10/27 01:09:37;;;;;;;30.57;18.77;;;12.60;90.30;;;;;;5075367;28;20202;-91
2021/10/27 01:12:04;;;;;;;29.43;17.73;;;12.60;90.30;;;;;;5057439;28;20651;-90
2021/10/27 01:14:35;;;;;;;32.33;19.07;;;12.60;90.30;;;;;;5057679;28;20175;-90
2021/10/27 01:17:03;;;;;;;29.57;19.27;;;12.60;90.20;;;;;;5057240;28;20199;-89
2021/10/27 01:19:39;;;;;;;35.40;19.10;;;12.60;90.30;;;;;;5075177;28;20573;-91
2021/10/27 01:22:04;;;;;;;28.77;17.60;;;12.60;90.30;;;;;;5057257;28;20177;-90
2021/10/27 01:24:30;;;;;;;24.30;15.57;;;12.70;90.00;;;;;;5057664;28;20239;-89
2021/10/27 01:26:56;;;;;;;26.83;18.83;;;12.70;90.00;;;;;;5057202;28;20172;-91
2021/10/27 01:29:22;;;;;;;30.30;17.67;;;12.70;90.10;;;;;;5075267;28;20278;-90
2021/10/27 01:31:47;;;;;;;25.67;16.10;;;12.70;89.90;;;;;;5057092;28;20175;-90
2021/10/27 01:34:13;;;;;;;31.20;19.83;;;12.70;90.00;;;;;;5074797;28;20167;-90
2021/10/27 01:36:39;;;;;;;28.10;19.17;;;12.80;89.90;;;;;;5056988;28;20230;-90
2021/10/27 01:39:04;;;;;;;29.27;19.37;;;12.70;90.00;;;;;;5074773;28;20626;-89
2021/10/27 01:41:30;;;;;;;28.50;18.80;;;12.70;90.10;;;;;;5056804;28;20176;-90
2021/10/27 01:43:58;;;;;;;26.47;17.10;;;12.70;90.10;;;;;;5056693;28;20228;-89
2021/10/27 01:46:32;;;;;;;24.83;17.93;;;12.70;90.20;;;;;;5056712;28;20201;-90
2021/10/27 01:48:58;;;;;;;30.10;21.13;;;12.70;90.00;;;;;;5074621;28;20195;-90
2021/10/27 01:51:26;;;;;;;28.80;18.40;;;12.70;89.90;;;;;;5057194;28;20210;-89
2021/10/27 01:53:52;;;;;;;26.57;19.03;;;12.70;90.10;;;;;;5057005;28;20175;-88
2021/10/27 01:56:20;;;;;;;32.57;20.60;;;12.80;90.00;;;;;;5056009;28;20271;-90
2021/10/27 01:58:46;;;;;;;31.67;19.57;;;12.80;90.00;;;;;;5056902;28;20191;-90
2021/10/27 02:01:12;;;;;;;27.53;21.07;;;12.80;89.90;;;;;;5056304;28;20313;-90
2021/10/27 02:03:37;;;;;;;27.50;17.53;;;12.80;89.90;;;;;;5056504;28;20206;-90
2021/10/27 02:06:03;;;;;;;27.17;20.07;;;12.80;89.70;;;;;;5056533;28;20179;-90
2021/10/27 02:08:29;;;;;;;24.43;18.20;;;12.80;89.80;;;;;;5074077;28;20261;-89
2021/10/27 02:10:55;;;;;;;34.17;21.57;;;12.80;89.90;;;;;;5056550;28;20262;-90
2021/10/27 02:13:20;;;;;;;28.60;21.20;;;12.80;89.90;;;;;;5074318;28;20198;-90
2021/10/27 02:15:46;;;;;;;39.87;23.17;;;12.80;89.90;;;;;;5074618;28;20244;-90
2021/10/27 02:18:11;;;;;;;27.80;18.83;;;12.80;89.90;;;;;;5073937;28;20187;-90
2021/10/27 02:20:37;;;;;;;27.97;21.70;;;12.80;89.90;;;;;;5056070;28;20270;-90
2021/10/27 02:23:03;;;;;;;36.07;21.33;;;12.80;89.90;;;;;;5074083;28;20167;-90
2021/10/27 02:25:28;;;;;;;32.93;20.77;;;12.80;90.00;;;;;;5074050;28;20186;-90
2021/10/27 02:27:54;;;;;;;30.33;20.50;;;12.80;90.00;;;;;;5056143;28;20764;-90
2021/10/27 02:30:20;;;;;;;33.50;20.37;;;12.80;90.10;;;;;;5057147;28;20266;-90
2021/10/27 02:32:45;;;;;;;30.20;22.43;;;12.80;90.00;;;;;;5074065;28;20168;-89
2021/10/27 02:35:11;;;;;;;34.73;21.40;;;12.80;90.00;;;;;;5055996;28;20596;-90
2021/10/27 02:37:37;;;;;;;26.77;18.93;;;12.80;90.10;;;;;;5073687;28;20258;-90
2021/10/27 02:40:03;;;;;;;31.00;19.73;;;12.80;90.10;;;;;;5056079;28;20172;-90
2021/10/27 02:42:29;;;;;;;38.03;23.63;;;12.90;90.00;;;;;;5056695;28;20626;-89
2021/10/27 02:44:55;;;;;;;28.50;18.67;;;12.80;90.20;;;;;;5055809;28;20168;-89
2021/10/27 02:47:21;;;;;;;33.67;20.97;;;12.80;90.20;;;;;;5055942;28;20171;-90
2021/10/27 02:49:46;;;;;;;31.43;20.97;;;12.90;90.20;;;;;;5056147;28;20172;-90
2021/10/27 02:52:12;;;;;;;34.47;23.53;;;12.80;90.30;;;;;;5055695;28;20596;-90
2021/10/27 02:54:37;;;;;;;36.73;24.27;;;12.80;90.30;;;;;;5073450;28;20180;-90
2021/10/27 02:57:03;;;;;;;36.20;19.37;;;12.80;90.50;;;;;;5055685;28;20682;-90
2021/10/27 02:59:29;;;;;;;31.30;22.77;;;12.80;90.60;;;;;;5055852;28;20248;-89
2021/10/27 03:01:55;;;;;;;32.83;23.70;;;12.80;90.50;;;;;;5055557;28;20175;-90
2021/10/27 03:04:20;;;;;;;39.60;23.33;;;12.80;90.50;;;;;;5055505;28;20275;-90
2021/10/27 03:06:46;;;;;;;35.70;23.47;;;12.80;90.50;;;;;;5073185;28;20304;-90
2021/10/27 03:09:11;;;;;;;40.30;24.77;;;12.90;90.40;;;;;;5073337;28;20194;-90
2021/10/27 03:11:37;;;;;;;38.47;22.23;;;12.90;90.40;;;;;;5055471;28;20198;-90
2021/10/27 03:14:03;;;;;;;40.53;24.40;;;12.80;90.50;;;;;;5055461;28;20244;-89
2021/10/27 03:16:28;;;;;;;35.40;23.83;;;12.80;90.50;;;;;;5055420;28;20203;-89
2021/10/27 03:18:54;;;;;;;32.10;21.20;;;12.90;90.50;;;;;;5055299;28;20702;-90
2021/10/27 03:21:19;;;;;;;30.77;23.77;;;12.80;90.50;;;;;;5073178;28;20541;-89
2021/10/27 03:23:46;;;;;;;40.27;25.33;;;12.90;90.40;;;;;;5055349;28;20186;-89
2021/10/27 03:26:12;;;;;;;37.77;23.63;;;12.80;90.50;;;;;;5055618;28;20183;-90
2021/10/27 03:28:37;;;;;;;32.63;23.87;;;12.80;90.60;;;;;;5055637;28;20683;-90
2021/10/27 03:31:03;;;;;;;38.73;24.40;;;12.90;90.50;;;;;;5055155;28;20211;-90
2021/10/27 03:33:29;;;;;;;36.77;23.67;;;12.90;90.50;;;;;;5055093;28;20269;-90
2021/10/27 03:35:54;;;;;;;36.63;26.43;;;12.90;90.50;;;;;;5054989;28;20203;-88
2021/10/27 03:38:20;;;;;;;36.33;24.43;;;12.80;90.70;;;;;;5055298;28;20256;-90
2021/10/27 03:40:46;;;;;;;34.13;24.63;;;12.80;90.70;;;;;;5072969;28;20240;-90
2021/10/27 03:43:12;;;;;;;34.37;24.47;;;12.80;90.80;;;;;;5054920;28;20176;-89
2021/10/27 03:45:38;;;;;;;40.97;24.27;;;12.80;90.80;;;;;;5055321;28;20578;-90
2021/10/27 03:48:04;;;;;;;36.37;27.50;;;12.80;90.80;;;;;;5054845;28;20195;-90
2021/10/27 03:50:30;;;;;;;34.50;27.80;;;12.80;90.90;;;;;;5054921;28;20179;-89
2021/10/27 03:52:55;;;;;;;40.93;25.67;;;12.80;90.90;;;;;;5055166;28;20709;-90
2021/10/27 03:55:21;;;;;;;34.03;23.27;;;12.80;90.80;;;;;;5054731;28;20218;-89
2021/10/27 03:57:47;;;;;;;36.60;26.70;;;12.80;90.70;;;;;;5054845;28;20289;-90
2021/10/27 04:00:13;;;;;;;39.67;24.53;;;12.90;90.70;;;;;;5055096;28;20176;-89
2021/10/27 04:02:42;;;;;;;42.20;27.07;;;12.90;90.60;;;;;;5072987;28;20509;-90
2021/10/27 04:05:09;;;;;;;34.60;23.83;;;12.90;90.40;;;;;;5072963;28;20176;-90
2021/10/27 04:07:37;;;;;;;35.83;23.50;;;12.90;90.50;;;;;;5072613;28;20194;-89
2021/10/27 04:10:08;;;;;;;38.97;25.57;;;12.90;90.50;;;;;;5054717;28;20171;-90
2021/10/27 04:12:36;;;;;;;35.33;24.63;;;12.90;90.40;;;;;;5072554;28;20225;-89
2021/10/27 04:15:04;;;;;;;38.30;23.63;;;12.90;90.30;;;;;;5054621;28;20180;-89
2021/10/27 04:17:30;;;;;;;28.87;20.20;;;12.90;90.30;;;;;;5054698;28;20219;-90
2021/10/27 04:19:57;;;;;;;38.93;26.67;;;13.00;90.10;;;;;;5074576;28;20167;-90
2021/10/27 04:22:23;;;;;;;38.50;25.60;;;13.00;90.20;;;;;;5058182;28;20183;-89
2021/10/27 04:24:49;;;;;;;35.80;23.57;;;12.90;90.30;;;;;;5076095;28;20629;-90
2021/10/27 04:27:14;;;;;;;37.37;25.27;;;12.90;90.40;;;;;;5058464;28;20218;-90
2021/10/27 04:29:41;;;;;;;35.57;23.37;;;12.90;90.40;;;;;;5058456;28;20253;-90
2021/10/27 04:32:07;;;;;;;36.27;22.20;;;12.90;90.20;;;;;;5075894;28;20176;-89
2021/10/27 04:34:32;;;;;;;39.03;22.90;;;13.00;90.20;;;;;;5075889;28;20175;-89
2021/10/27 04:36:59;;;;;;;29.63;19.90;;;13.00;90.10;;;;;;5057925;28;20577;-89
2021/10/27 04:39:24;;;;;;;31.70;21.63;;;13.00;90.00;;;;;;5076018;28;20218;-89
2021/10/27 04:41:51;;;;;;;38.43;22.70;;;13.00;89.90;;;;;;5057904;28;20635;-90
2021/10/27 04:44:16;;;;;;;41.40;24.87;;;13.10;89.80;;;;;;5057973;28;20183;-90
2021/10/27 04:46:42;;;;;;;41.10;26.13;;;13.00;89.80;;;;;;5075663;28;20545;-90
2021/10/27 04:49:08;;;;;;;43.37;25.80;;;13.00;89.90;;;;;;5075602;28;20199;-89
2021/10/27 04:51:33;;;;;;;34.90;24.20;;;12.90;90.00;;;;;;5057762;28;20183;-89
2021/10/27 04:53:59;;;;;;;34.23;24.13;;;12.90;90.10;;;;;;5057597;28;20283;-89
2021/10/27 04:56:24;;;;;;;37.10;25.87;;;13.00;90.00;;;;;;5057963;28;20217;-90
2021/10/27 04:58:50;;;;;;;44.53;27.37;;;13.00;90.00;;;;;;5057597;28;20274;-90
2021/10/27 05:01:16;;;;;;;40.27;25.80;;;13.00;90.10;;;;;;5075702;28;20209;-89
2021/10/27 05:03:42;;;;;;;35.17;25.60;;;13.00;90.10;;;;;;5075297;28;20168;-90
2021/10/27 05:06:09;;;;;;;40.13;26.23;;;13.00;90.10;;;;;;5075243;28;20254;-90
2021/10/27 05:08:35;;;;;;;37.10;26.90;;;13.00;90.00;;;;;;5057969;28;20601;-90
2021/10/27 05:11:01;;;;;;;37.23;26.33;;;13.00;90.10;;;;;;5057359;28;20175;-89
2021/10/27 05:13:28;;;;;;;38.17;25.07;;;13.00;90.10;;;;;;5057185;28;20175;-90
2021/10/27 05:15:54;;;;;;;34.93;25.63;;;13.00;90.20;;;;;;5057152;28;20717;-90
2021/10/27 05:18:20;;;;;;;45.57;26.63;;;13.00;90.30;;;;;;5075397;28;20191;-90
2021/10/27 05:20:46;;;;;;;41.57;23.43;;;13.00;90.20;;;;;;5057420;28;20180;-89
2021/10/27 05:23:13;;;;;;;36.10;26.23;;;13.00;90.20;;;;;;5057139;28;20167;-90
2021/10/27 05:25:39;;;;;;;40.00;24.97;;;13.00;90.20;;;;;;5057282;28;20203;-89
2021/10/27 05:28:05;;;;;;;37.37;23.40;;;13.00;90.30;;;;;;5056850;28;20207;-91
2021/10/27 05:30:31;;;;;;;38.47;23.67;;;13.00;90.30;;;;;;5056768;28;20176;-90
2021/10/27 05:32:57;;;;;;;35.70;24.07;;;13.10;90.20;;;;;;5056947;28;20549;-90
2021/10/27 05:35:25;;;;;;;41.77;25.67;;;13.10;90.20;;;;;;5056847;28;20199;-90
2021/10/27 05:37:51;;;;;;;43.07;24.73;;;13.10;90.30;;;;;;5074584;28;20183;-90
2021/10/27 05:40:17;;;;;;;40.47;24.47;;;13.00;90.40;;;;;;5056644;28;20167;-90
2021/10/27 05:42:42;;;;;;;39.77;25.83;;;13.10;90.40;;;;;;5056545;28;20171;-89
2021/10/27 05:45:09;;;;;;;39.00;22.73;;;13.10;90.50;;;;;;5074414;28;20179;-89
2021/10/27 05:47:37;;;;;;;40.23;24.83;;;13.00;90.60;;;;;;5074428;28;20698;-89
2021/10/27 05:55:35;;;;;;;36.60;23.63;;;13.00;90.80;;;;;;5074680;28;20260;-90
2021/10/27 05:58:05;;;;;;;48.00;24.07;;;13.10;90.70;;;;;;5056228;28;20195;-89
2021/10/27 06:00:32;;;;;;;23.93;16.23;;;13.10;90.70;;;;;;5056364;28;20550;-89
2021/10/27 06:02:58;;;;;;;34.37;21.63;;;13.10;90.60;;;;;;5056592;28;20182;-90
2021/10/27 06:05:24;;;;;;;41.20;26.53;;;13.10;90.50;;;;;;5056175;28;20214;-89
2021/10/27 06:07:51;;;;;;;35.10;19.77;;;13.10;90.80;;;;;;5056159;28;20241;-89
2021/10/27 06:10:21;;;;;;;32.93;23.47;;;13.00;90.90;;;;;;5056048;28;20176;-90
2021/10/27 06:12:54;;;;;;;34.57;22.77;;;13.10;91.00;;;;;;5074004;28;20178;-90
2021/10/27 06:15:22;;;;;;;31.37;20.67;;;13.10;90.90;;;;;;5055910;28;20249;-89
2021/10/27 06:17:49;;;;;;;33.10;21.17;;;13.10;90.80;;;;;;5073756;28;20187;-90
2021/10/27 06:20:14;;;;;;;34.97;21.00;;;13.20;90.80;;;;;;5056002;28;20262;-89
2021/10/27 06:22:41;;;;;;;27.07;20.40;;;13.20;90.90;;;;;;5073836;28;20259;-89
2021/10/27 06:25:09;;;;;;;30.87;21.43;;;13.20;90.80;;;;;;5055860;28;20171;-90
2021/10/27 06:27:35;;;;;;;32.77;20.43;;;13.20;90.80;;;;;;5055982;28;20217;-90
2021/10/27 06:30:10;;;;;;;29.30;21.07;;;13.20;90.90;;;;;;5055851;28;20181;-90
2021/10/27 06:32:40;;;;;;;33.50;21.87;;;13.10;91.00;;;;;;5055851;28;20646;-90
2021/10/27 06:35:30;;;;;;;30.90;21.27;;;13.10;91.10;;;;;;5055678;28;20179;-90
2021/10/27 06:46:25;;;;;;;31.27;20.57;;;13.20;91.20;;;;;;5074091;28;20170;-90
2021/10/27 06:48:48;;;;;;;32.47;22.50;;;13.10;91.40;;;;;;5073130;28;20191;-89
2021/10/27 06:51:14;;;;;;;33.67;21.37;;;13.10;91.60;;;;;;5073392;28;20168;-89
2021/10/27 06:53:40;;;;;;;38.70;22.57;;;13.10;91.70;;;;;;5055335;28;20179;-90
2021/10/27 06:56:11;;;;;;;26.77;19.40;;;13.10;91.70;;;;;;5055541;28;20207;-89
2021/10/27 06:58:45;;;;;;;33.23;20.23;;;13.10;91.90;;;;;;5055459;28;20199;-90
2021/10/27 07:01:40;;;;;;;34.87;21.17;;;13.10;92.10;;;;;;5056340;28;20238;-90
2021/10/27 07:17:22;;;;;;;33.67;24.17;;;13.20;92.20;;;;;;5073185;28;20170;-89
2021/10/27 07:19:48;;;;;;;39.13;23.97;;;13.20;92.20;;;;;;5055277;28;20178;-89
2021/10/27 07:22:14;;;;;;;34.50;23.73;;;13.20;92.20;;;;;;5073108;28;20254;-89
2021/10/27 07:24:41;;;;;;;34.77;23.30;;;13.20;92.20;;;;;;5055185;28;20266;-89
2021/10/27 07:27:09;;;;;;;36.20;22.37;;;13.20;92.10;;;;;;5073109;28;20254;-88
2021/10/27 07:29:35;;;;;;;32.60;23.40;;;13.30;92.00;;;;;;5055316;28;20621;-90
2021/10/27 07:32:03;;;;;;;34.60;21.97;;;13.20;92.10;;;;;;5055158;28;20180;-89
2021/10/27 07:34:38;;;;;;;38.37;24.30;;;13.30;92.10;;;;;;5073033;28;20171;-89
2021/10/27 07:40:32;;;;;;;33.53;21.53;;;13.30;92.10;;;;;;5073021;28;20170;-90
2021/10/27 07:42:39;;;;;;;32.60;19.43;;;13.30;92.20;;;;;;5070431;28;20175;-88
2021/10/27 07:45:05;;;;;;;34.67;24.97;;;13.30;92.00;;;;;;5054988;28;20179;-88
2021/10/27 07:47:31;;;;;;;41.03;22.40;;;13.30;92.00;;;;;;5054811;28;20547;-88
2021/10/27 07:49:56;;;;;;;26.83;19.30;;;13.40;91.80;;;;;;5072866;28;20183;-89
2021/10/27 07:52:22;;;;;;;27.20;20.33;;;13.40;91.60;;;;;;5072875;28;20178;-90
2021/10/27 07:54:48;;;;;;;37.50;23.03;;;13.50;91.40;;;;;;5056660;28;20195;-90
2021/10/27 07:57:14;;;;;;;31.27;24.33;;;13.50;91.40;;;;;;5058681;28;20730;-89
2021/10/27 07:59:40;;;;;;;30.67;22.40;;;13.40;91.50;;;;;;5076853;28;20266;-89
2021/10/27 08:02:06;;;;;;;36.80;23.77;;;13.40;91.70;;;;;;5077257;28;20163;-89
2021/10/27 08:04:39;;;;;;;34.20;23.20;;;13.40;91.90;;;;;;5058861;28;20167;-90
2021/10/27 08:07:05;;;;;;;38.33;26.03;;;13.40;92.00;;;;;;5076428;28;20171;-90
2021/10/27 08:09:33;;;;;;;36.07;26.63;;;13.40;92.20;;;;;;5058542;28;20186;-88
2021/10/27 08:11:58;;;;;;;31.07;21.87;;;13.40;92.40;;;;;;5058431;28;20226;-89
2021/10/27 08:14:24;;;;;;;38.87;28.47;;;13.40;92.40;;;;;;5058433;28;20182;-89
2021/10/27 08:16:50;;;;;;;37.80;25.63;;;13.40;92.30;;;;;;5058228;28;20203;-88
2021/10/27 08:19:15;;;;;;;34.50;24.03;;;13.50;92.20;;;;;;5076368;28;20187;-89
2021/10/27 08:21:42;;;;;;;32.07;24.13;;;13.40;92.00;;;;;;5058507;28;20175;-88
2021/10/27 08:24:09;;;;;;;36.10;22.73;;;13.50;91.70;;;;;;5058253;28;20705;-89
2021/10/27 08:26:36;;;;;;;32.97;23.80;;;13.60;91.70;;;;;;5058587;28;20178;-88
2021/10/27 08:29:11;;;;;;;34.57;22.10;;;13.50;91.70;;;;;;5076004;28;20187;-89
2021/10/27 08:31:40;;;;;;;37.50;24.07;;;13.50;91.80;;;;;;5059051;28;20212;-88
2021/10/27 08:36:33;;;;;;;30.50;22.57;;;13.60;91.80;;;;;;5076209;28;20191;-89
2021/10/27 08:39:01;;;;;;;31.20;22.90;;;13.60;91.70;;;;;;5057842;28;20198;-88
2021/10/27 08:41:27;;;;;;;32.23;23.47;;;13.60;91.70;;;;;;5058010;28;20186;-88
2021/10/27 08:43:52;;;;;;;34.00;23.53;;;13.60;91.80;;;;;;5057918;28;20208;-89
2021/10/27 08:46:19;;;;;;;34.43;21.80;;;13.60;91.70;;;;;;5057672;28;20564;-89
2021/10/27 08:48:51;;;;;;;28.10;19.83;;;13.50;91.80;;;;;;5057968;28;20557;-89
2021/10/27 08:51:18;;;;;;;32.10;19.63;;;13.60;91.70;;;;;;5058572;28;20520;-89
2021/10/27 08:53:48;;;;;;;24.43;18.77;;;13.60;91.50;;;;;;5075538;28;20175;-89
2021/10/27 08:56:13;;;;;;;27.33;18.07;;;13.60;91.70;;;;;;5075390;28;20286;-89
2021/10/27 08:58:44;;;;;;;31.60;19.87;;;13.60;91.60;;;;;;5075368;28;20230;-89
2021/10/27 09:04:33;;;;;;;25.90;17.83;;;13.60;91.80;;;;;;5075615;28;20172;-89
2021/10/27 09:07:20;;;;;;;26.10;16.67;;;13.60;91.90;;;;;;5071883;28;20187;-89
2021/10/27 09:10:00;;;;;;;29.30;16.27;;;13.60;92.00;;;;;;5075246;28;20194;-89
2021/10/27 09:37:54;;;;;;;21.80;16.03;;;13.70;92.30;;;;;;5075064;28;20278;-88
2021/10/27 09:40:45;;;;;;;17.43;11.80;;;13.70;92.10;;;;;;5056924;28;20182;-89
2021/10/27 10:05:17;;;;;;;20.87;14.07;;;14.10;91.60;;;;;;5074730;28;20163;-89
2021/10/27 10:07:44;;;;;;;21.63;15.07;;;14.10;91.50;;;;;;5074043;28;20301;-89
2021/10/27 10:10:11;;;;;;;16.50;12.60;;;14.10;91.40;;;;;;5074115;28;20175;-89
2021/10/27 10:12:45;;;;;;;21.60;14.77;;;14.20;91.60;;;;;;5074062;28;20174;-89
2021/10/27 10:15:12;;;;;;;13.10;10.33;;;14.20;91.50;;;;;;5056156;28;20179;-89
2021/10/27 10:17:41;;;;;;;17.87;13.67;;;14.20;91.30;;;;;;5055231;28;20206;-89
2021/10/27 10:20:10;;;;;;;19.87;13.93;;;14.20;91.10;;;;;;5056063;28;20171;-89
2021/10/27 10:22:37;;;;;;;16.43;14.00;;;14.20;90.90;;;;;;5073944;28;20625;-89
2021/10/27 10:25:18;;;;;;;16.97;13.20;;;14.20;91.00;;;;;;5056606;28;20194;-89
2021/10/27 10:27:48;;;;;;;17.27;14.07;;;14.20;91.10;;;;;;5073775;28;20187;-89
2021/10/27 10:30:49;;;;;;;15.20;11.43;;;14.30;90.80;;;;;;5056032;28;20190;-89
2021/10/27 10:33:16;;;;;;;13.23;10.53;;;14.30;90.50;;;;;;5042205;28;20237;-89
2021/10/27 10:35:55;;;;;;;16.70;12.10;;;14.30;90.40;;;;;;5055338;28;20269;-89
2021/10/27 10:38:31;;;;;;;15.93;12.83;;;14.30;90.40;;;;;;5073629;28;20534;-91
2021/10/27 11:00:42;;;;;;;20.00;11.10;;;14.70;89.10;;;;;;5060924;28;20221;-89
2021/10/27 11:26:01;;;;;;;11.77;8.90;;;14.70;89.00;;;;;;5073595;28;20182;-90
2021/10/27 11:39:54;;;;;;;12.83;9.53;;;14.80;89.10;;;;;;5077308;28;20574;-90
2021/10/27 11:45:10;;;;;;;13.33;10.20;;;14.70;89.30;;;;;;5077496;28;20200;-89
2021/10/27 11:47:41;;;;;;;12.70;10.33;;;14.70;89.40;;;;;;5058882;28;20195;-89
2021/10/27 11:50:10;;;;;;;18.73;11.53;;;14.70;89.60;;;;;;5059154;28;20175;-89
2021/10/27 11:52:41;;;;;;;13.93;10.90;;;14.60;89.40;;;;;;5058762;28;20175;-90
2021/10/27 11:55:09;;;;;;;14.30;11.63;;;14.60;89.60;;;;;;5058619;28;20332;-90
2021/10/27 11:57:39;;;;;;;15.73;11.73;;;14.60;89.70;;;;;;5058537;28;20195;-90
2021/10/27 12:00:22;;;;;;;13.67;11.37;;;14.50;89.60;;;;;;5076407;28;20175;-90
2021/10/27 12:02:51;;;;;;;12.80;11.47;;;14.50;89.70;;;;;;5076472;28;20768;-89
2021/10/27 12:05:22;;;;;;;18.63;13.50;;;14.50;89.80;;;;;;5058452;28;20723;-89
2021/10/27 12:13:42;;;;;;;17.77;12.10;;;14.40;90.30;;;;;;5076353;28;20209;-91
2021/10/27 12:19:05;;;;;;;13.57;11.20;;;14.50;89.70;;;;;;5076405;28;20183;-90
2021/10/27 12:21:31;;;;;;;17.47;12.40;;;14.50;89.60;;;;;;5058420;28;20169;-89
2021/10/27 12:24:00;;;;;;;11.90;10.57;;;14.50;89.60;;;;;;5077019;28;20175;-91
2021/10/27 12:26:26;;;;;;;14.83;10.43;;;14.50;89.30;;;;;;5058575;28;20175;-90
2021/10/27 12:29:11;;;;;;;14.07;10.93;;;14.50;89.30;;;;;;5059205;28;20516;-90
2021/10/27 12:31:37;;;;;;;16.17;11.03;;;14.50;89.40;;;;;;5076245;28;20642;-90
2021/10/27 12:34:25;;;;;;;23.40;12.37;;;14.50;89.70;;;;;;5058557;28;20210;-90
2021/10/27 12:36:52;;;;;;;14.07;11.37;;;14.40;89.70;;;;;;5058769;28;20285;-90
2021/10/27 12:39:31;;;;;;;15.47;12.37;;;14.30;89.90;;;;;;5057887;28;20207;-90
2021/10/27 12:42:09;;;;;;;14.33;11.47;;;14.30;90.20;;;;;;5057788;28;20167;-90
2021/10/27 12:44:51;;;;;;;24.73;13.10;;;14.30;90.30;;;;;;5057954;28;20164;-90
2021/10/27 12:47:21;;;;;;;17.57;12.90;;;14.30;90.50;;;;;;5075893;28;20174;-90
2021/10/27 12:49:48;;;;;;;19.50;13.33;;;14.20;90.80;;;;;;5075885;28;20160;-90
2021/10/27 12:52:29;;;;;;;16.00;13.67;;;14.20;91.00;;;;;;5057561;28;20203;-90
2021/10/27 12:55:13;;;;;;;18.43;14.53;;;14.20;91.10;;;;;;5075548;28;20187;-90
2021/10/27 12:57:58;;;;;;;19.47;12.00;;;14.20;91.10;;;;;;5075381;28;20199;-90
2021/10/27 13:30:18;;;;;;;20.93;13.77;;;14.10;90.60;;;;;;5075464;28;20166;-89
2021/10/27 13:32:52;;;;;;;16.50;14.00;;;14.10;90.60;;;;;;5074832;28;20155;-90
2021/10/27 13:35:19;;;;;;;15.80;12.83;;;14.10;90.60;;;;;;5057076;28;20301;-90
2021/10/27 13:37:45;;;;;;;18.10;12.73;;;14.20;90.20;;;;;;5074878;28;20238;-90
2021/10/27 13:40:11;;;;;;;13.90;12.23;;;14.20;90.00;;;;;;5056957;28;20650;-90
2021/10/27 13:46:10;;;;;;;15.73;12.20;;;14.20;89.90;;;;;;5074632;28;20158;-89
2021/10/27 14:07:06;;;;;;;14.77;11.43;;;14.20;89.60;;;;;;5074463;28;20174;-89
2021/10/27 14:09:43;;;;;;;16.43;11.40;;;14.20;89.60;;;;;;5074079;28;20152;-90
2021/10/27 15:19:39;;;;;;;8.53;5.37;;;14.30;86.90;;;;;;5073473;28;20325;-91
2021/10/27 15:22:21;;;;;;;9.70;6.03;;;14.40;86.30;;;;;;5055586;28;20159;-90
2021/10/27 15:43:02;;;;;;;9.97;4.70;;;14.40;85.50;;;;;;5073779;28;20191;-89
2021/10/27 15:51:07;;;;;;;7.63;4.27;;;14.40;85.50;;;;;;5073192;28;20166;-90
2021/10/27 15:53:35;;;;;;;9.57;4.30;;;14.40;85.40;;;;;;5054764;28;20175;-90
2021/10/27 15:56:01;;;;;;;12.00;4.20;;;14.30;85.40;;;;;;5054684;28;20214;-90
2021/10/27 15:58:27;;;;;;;14.03;4.07;;;14.40;85.30;;;;;;5054866;28;20202;-90
2021/10/27 16:00:53;;;;;;;8.57;4.37;;;14.30;85.50;;;;;;5054939;28;20667;-90
2021/10/27 16:03:18;;;;;;;9.73;4.13;;;14.30;85.10;;;;;;5054792;28;20258;-90
2021/10/27 16:05:46;;;;;;;16.50;4.03;;;14.30;85.20;;;;;;5054778;28;20179;-92
2021/10/27 16:08:15;;;;;;;9.57;4.23;;;14.30;85.00;;;;;;5054802;28;20227;-90
2021/10/27 16:10:42;;;;;;;9.27;3.93;;;14.30;85.00;;;;;;5054759;28;20175;-91
2021/10/27 16:13:08;;;;;;;12.80;4.37;;;14.30;85.10;;;;;;5054769;28;20183;-90
2021/10/27 16:15:39;;;;;;;11.67;4.80;;;14.30;84.60;;;;;;5056057;28;20179;-90
2021/10/27 16:18:08;;;;;;;8.67;3.17;;;14.30;84.70;;;;;;5076248;28;20667;-91
2021/10/27 16:20:36;;;;;;;12.70;3.87;;;14.40;84.00;;;;;;5058271;28;20175;-91
2021/10/27 16:23:02;;;;;;;5.43;3.20;;;14.40;84.20;;;;;;5058189;28;20171;-90
2021/10/27 16:25:29;;;;;;;13.83;3.80;;;14.40;84.30;;;;;;5076147;28;20212;-91
2021/10/27 16:27:54;;;;;;;7.43;4.03;;;14.30;84.40;;;;;;5058054;28;20187;-90
2021/10/27 16:30:20;;;;;;;10.10;4.53;;;14.30;84.40;;;;;;5058049;28;20209;-91
2021/10/27 16:32:46;;;;;;;12.03;4.77;;;14.30;84.90;;;;;;5058679;28;20260;-91
2021/10/27 16:35:12;;;;;;;11.70;4.47;;;14.20;85.10;;;;;;5058079;28;20274;-91
2021/10/27 16:37:38;;;;;;;6.97;3.93;;;14.20;85.10;;;;;;5075802;28;20199;-90
2021/10/27 16:40:05;;;;;;;12.13;4.80;;;14.20;85.00;;;;;;5075933;28;20167;-90
2021/10/27 16:42:32;;;;;;;11.53;4.83;;;14.30;84.30;;;;;;5057953;28;20251;-90
2021/10/27 16:44:58;;;;;;;8.60;4.67;;;14.30;84.80;;;;;;5058338;28;20171;-90
2021/10/27 16:47:24;;;;;;;8.37;4.33;;;14.30;84.60;;;;;;5057711;28;20210;-91
2021/10/27 16:49:50;;;;;;;9.40;4.33;;;14.30;84.30;;;;;;5057975;28;20228;-90
2021/10/27 16:52:17;;;;;;;13.33;5.47;;;14.30;84.30;;;;;;5057766;28;20226;-90
2021/10/27 16:54:43;;;;;;;10.20;4.17;;;14.30;84.20;;;;;;5057556;28;20556;-90
2021/10/27 16:57:09;;;;;;;16.50;4.30;;;14.30;83.80;;;;;;5057564;28;20200;-91
2021/10/27 16:59:35;;;;;;;9.07;4.13;;;14.30;84.00;;;;;;5057738;28;20182;-90
2021/10/27 17:02:02;;;;;;;10.80;4.40;;;14.30;83.80;;;;;;5057745;28;20179;-91
2021/10/27 17:04:27;;;;;;;10.63;4.37;;;14.30;83.90;;;;;;5075716;28;20171;-90
2021/10/27 17:06:57;;;;;;;10.17;4.40;;;14.30;84.20;;;;;;5075295;28;20198;-90
2021/10/27 17:09:23;;;;;;;13.07;4.70;;;14.20;84.40;;;;;;5075201;28;20191;-91
2021/10/27 17:11:49;;;;;;;9.17;4.50;;;14.20;84.50;;;;;;5057446;28;20175;-91
2021/10/27 17:14:14;;;;;;;6.07;3.20;;;14.30;83.60;;;;;;5057519;28;20670;-91
2021/10/27 17:16:40;;;;;;;6.73;4.07;;;14.30;83.60;;;;;;5057157;28;20209;-90
2021/10/27 17:19:06;;;;;;;10.00;3.47;;;14.40;82.60;;;;;;5075057;28;20230;-91
2021/10/27 17:21:32;;;;;;;8.93;3.97;;;14.30;83.20;;;;;;5057253;28;20175;-90
2021/10/27 17:24:00;;;;;;;6.80;4.13;;;14.30;82.60;;;;;;5057434;28;20175;-91